createdAt,value
2022-10-06T03:56:21.244Z,101055.37
2022-10-06T03:59:48.535Z,101055.54
2022-10-06T04:03:20.424Z,101059.17
2022-10-06T04:06:47.631Z,101064.89
2022-10-06T04:10:18.365Z,101067.10
2022-10-06T04:13:46.246Z,101064.23
2022-10-06T04:17:13.085Z,101070.63
2022-10-06T04:20:41.464Z,101072.10
2022-10-06T04:24:10.710Z,101076.24
2022-10-06T04:27:39.298Z,101079.13
2022-10-06T04:31:17.112Z,101083.20
2022-10-06T04:34:44.157Z,101085.65
2022-10-06T04:38:11.525Z,101087.36
2022-10-06T04:41:40.904Z,101088.67
2022-10-06T04:45:11.646Z,101086.98
2022-10-06T04:48:39.986Z,101087.18
2022-10-06T04:52:07.303Z,101087.77
2022-10-06T04:55:36.375Z,101089.41
2022-10-06T04:59:04.934Z,101099.61
2022-10-06T05:02:35.058Z,101103.90
2022-10-06T05:06:11.543Z,101110.29
2022-10-06T05:09:38.845Z,101111.95
2022-10-06T05:13:06.307Z,101116.09
2022-10-06T05:16:34.127Z,101117.61
2022-10-06T05:20:01.232Z,101117.60
2022-10-06T05:23:29.713Z,101124.08
2022-10-06T05:27:00.837Z,101131.65
2022-10-06T05:30:29.130Z,101140.98
2022-10-06T05:33:56.540Z,101144.92
2022-10-06T05:37:25.317Z,101147.52
2022-10-06T05:40:52.668Z,101155.86
2022-10-06T05:44:19.388Z,101162.30
2022-10-06T05:47:46.404Z,101170.13
2022-10-06T05:51:15.018Z,101174.55
2022-10-06T05:54:42.021Z,101174.66
2022-10-06T05:58:09.515Z,101179.68
2022-10-06T06:01:40.033Z,101181.77
2022-10-06T06:05:11.061Z,101188.33
2022-10-06T06:08:37.839Z,101190.23
2022-10-06T06:12:05.706Z,101196.91
2022-10-06T06:16:06.234Z,101202.98
2022-10-06T06:19:34.046Z,101209.25
2022-10-06T06:23:01.132Z,101215.73
2022-10-06T06:26:32.976Z,101218.92
2022-10-06T06:29:59.724Z,101230.27
2022-10-06T06:33:27.693Z,101236.45
2022-10-06T06:36:56.054Z,101240.88
2022-10-06T06:40:22.714Z,101250.38
2022-10-06T06:43:53.000Z,101256.53
2022-10-06T06:47:29.833Z,101263.94
2022-10-06T06:51:01.443Z,101270.48
2022-10-06T06:54:30.980Z,101277.70
2022-10-06T06:58:09.054Z,101289.35
2022-10-06T07:01:36.460Z,101296.09
2022-10-06T07:05:03.410Z,101302.29
2022-10-06T07:08:31.441Z,101311.47
2022-10-06T07:11:58.598Z,101315.88
2022-10-06T07:15:43.612Z,101323.30
2022-10-06T07:19:32.759Z,101331.60
2022-10-06T07:23:17.424Z,101334.14
2022-10-06T07:26:45.206Z,101338.98
2022-10-06T07:30:15.067Z,101348.90
2022-10-06T07:33:41.968Z,101358.61
2022-10-06T07:37:09.559Z,101358.62
2022-10-06T07:40:40.252Z,101353.55
2022-10-06T07:44:13.543Z,101357.30
2022-10-06T07:47:42.940Z,101362.85
2022-10-06T07:51:15.469Z,101362.30
2022-10-06T07:54:45.192Z,101364.38
2022-10-06T07:58:24.141Z,101375.02
2022-10-06T08:01:52.521Z,101381.63
2022-10-06T08:05:19.523Z,101391.23
2022-10-06T08:08:52.657Z,101400.48
2022-10-06T08:12:37.920Z,101408.12
2022-10-06T08:16:08.582Z,101418.56
2022-10-06T08:19:35.267Z,101425.34
2022-10-06T08:23:01.824Z,101427.88
2022-10-06T08:26:31.044Z,101437.27
2022-10-06T08:29:58.275Z,101440.66
2022-10-06T08:33:24.835Z,101444.61
2022-10-06T08:37:15.816Z,101459.15
2022-10-06T08:40:38.791Z,101463.63
2022-10-06T08:44:19.654Z,101475.00
2022-10-06T08:47:57.645Z,101476.52
2022-10-06T08:51:44.491Z,101478.56
2022-10-06T08:55:19.987Z,101476.37
2022-10-06T08:58:54.620Z,101487.55
2022-10-06T09:02:32.436Z,101489.52
2022-10-06T09:06:08.367Z,101495.71
2022-10-06T09:09:51.935Z,101501.89
2022-10-06T09:13:22.425Z,101504.55
2022-10-06T09:16:53.891Z,101502.59
2022-10-06T09:20:29.136Z,101501.02
2022-10-06T09:24:02.560Z,101505.29
2022-10-06T09:27:33.962Z,101509.73
2022-10-06T09:31:04.457Z,101516.12
2022-10-06T09:34:41.663Z,101519.30
2022-10-06T09:38:09.446Z,101526.20
2022-10-06T09:41:41.263Z,101531.16
2022-10-06T09:45:29.082Z,101536.66
2022-10-06T09:49:15.391Z,101537.19
2022-10-06T09:52:44.217Z,101546.39
2022-10-06T09:56:18.992Z,101548.69
2022-10-06T09:59:48.641Z,101557.17
2022-10-06T10:03:14.574Z,101562.11
2022-10-06T10:06:41.817Z,101580.86
2022-10-06T10:10:23.854Z,101578.39
2022-10-06T10:13:56.805Z,101590.71
2022-10-06T10:17:32.905Z,101588.23
2022-10-06T10:21:05.155Z,101591.73
2022-10-06T10:24:51.518Z,101597.70
2022-10-06T10:28:50.947Z,101604.77
2022-10-06T10:32:18.289Z,101601.92
2022-10-06T10:35:51.196Z,101597.61
2022-10-06T10:39:28.309Z,101596.09
2022-10-06T10:43:03.349Z,101603.82
2022-10-06T10:46:35.165Z,101615.23
2022-10-06T10:50:08.597Z,101614.11
2022-10-06T10:53:45.202Z,101612.34
2022-10-06T10:57:17.710Z,101614.56
2022-10-06T11:00:48.925Z,101612.34
2022-10-06T11:04:16.795Z,101615.15
2022-10-06T11:07:53.401Z,101625.28
2022-10-06T11:11:29.994Z,101628.73
2022-10-06T11:15:01.749Z,101640.38
2022-10-06T11:18:41.435Z,101649.97
2022-10-06T11:22:13.521Z,101648.77
2022-10-06T11:25:48.256Z,101648.34
2022-10-06T11:29:28.213Z,101647.92
2022-10-06T11:33:04.794Z,101648.43
2022-10-06T11:36:43.497Z,101654.64
2022-10-06T11:40:29.336Z,101655.86
2022-10-06T11:44:04.417Z,101662.45
2022-10-06T11:47:36.466Z,101669.55
2022-10-06T11:51:32.431Z,101681.09
2022-10-06T11:55:14.426Z,101686.95
2022-10-06T11:59:12.034Z,101694.95
2022-10-06T12:02:41.511Z,101696.19
2022-10-06T12:06:09.520Z,101688.06
2022-10-06T12:09:52.272Z,101696.22
2022-10-06T12:14:12.392Z,101700.10
2022-10-06T12:17:21.619Z,101701.87
2022-10-06T12:20:59.588Z,101699.21
2022-10-06T12:24:42.978Z,101702.59
2022-10-06T12:28:22.855Z,101705.78
2022-10-06T12:32:01.645Z,101702.59
2022-10-06T12:35:33.803Z,101708.43
2022-10-06T12:39:24.463Z,101717.66
2022-10-06T12:42:51.050Z,101719.79
2022-10-06T12:46:25.105Z,101722.80
2022-10-06T12:49:55.590Z,101723.33
2022-10-06T12:53:32.602Z,101725.65
2022-10-06T12:57:01.299Z,101724.95
2022-10-06T13:00:34.927Z,101732.21
2022-10-06T13:04:02.200Z,101729.55
2022-10-06T13:07:30.622Z,101734.35
2022-10-06T13:11:20.940Z,101737.89
2022-10-06T13:14:48.859Z,101740.02
2022-10-06T13:18:18.556Z,101739.65
2022-10-06T13:21:45.799Z,101740.72
2022-10-06T13:25:16.692Z,101747.81
2022-10-06T13:28:51.892Z,101755.98
2022-10-06T13:32:20.769Z,101756.86
2022-10-06T13:35:49.156Z,101757.74
2022-10-06T13:39:18.466Z,101768.52
2022-10-06T13:42:48.799Z,101773.84
2022-10-06T13:46:18.577Z,101774.72
2022-10-06T13:49:50.410Z,101776.85
2022-10-06T13:53:32.707Z,101776.66
2022-10-06T13:57:00.215Z,101776.31
2022-10-06T14:00:28.643Z,101778.79
2022-10-06T14:04:14.203Z,101775.77
2022-10-06T14:07:45.944Z,101780.71
2022-10-06T14:11:13.234Z,101791.86
2022-10-06T14:14:40.956Z,101790.77
2022-10-06T14:18:07.943Z,101790.95
2022-10-06T14:21:41.880Z,101796.77
2022-10-06T14:25:15.307Z,101797.29
2022-10-06T14:28:46.516Z,101797.09
2022-10-06T14:32:18.413Z,101800.08
2022-10-06T14:35:45.558Z,101801.45
2022-10-06T14:39:15.404Z,101805.80
2022-10-06T14:42:42.100Z,101807.54
2022-10-06T14:46:14.443Z,101811.73
2022-10-06T14:49:41.250Z,101813.27
2022-10-06T14:53:39.963Z,101816.08
2022-10-06T14:57:06.594Z,101815.85
2022-10-06T15:00:33.705Z,101816.34
2022-10-06T15:04:02.906Z,101820.50
2022-10-06T15:07:47.561Z,101820.77
2022-10-06T15:11:14.900Z,101823.52
2022-10-06T15:14:41.730Z,101831.58
2022-10-06T15:18:08.890Z,101836.06
2022-10-06T15:21:39.856Z,101841.11
2022-10-06T15:25:08.039Z,101844.20
2022-10-06T15:28:54.007Z,101851.52
2022-10-06T15:32:20.786Z,101858.45
2022-10-06T15:36:00.867Z,101863.45
2022-10-06T15:39:30.169Z,101862.95
2022-10-06T15:42:57.801Z,101865.09
2022-10-06T15:46:27.088Z,101868.45
2022-10-06T15:49:53.897Z,101868.20
2022-10-06T15:53:22.526Z,101869.71
2022-10-06T15:56:50.100Z,101870.88
2022-10-06T16:00:18.221Z,101872.23
2022-10-06T16:03:44.854Z,101881.24
2022-10-06T16:07:14.232Z,101886.52
2022-10-06T16:10:41.006Z,101890.30
2022-10-06T16:14:08.563Z,101887.23
2022-10-06T16:17:35.531Z,101892.23
2022-10-06T16:21:02.385Z,101898.28
2022-10-06T16:24:29.468Z,101905.04
2022-10-06T16:27:56.509Z,101911.05
2022-10-06T16:31:23.735Z,101921.44
2022-10-06T16:34:50.767Z,101923.05
2022-10-06T16:38:17.396Z,101930.34
2022-10-06T16:41:44.503Z,101939.38
2022-10-06T16:45:14.580Z,101938.43
2022-10-06T16:48:42.825Z,101940.95
2022-10-06T16:52:09.520Z,101949.34
2022-10-06T16:55:36.826Z,101954.56
2022-10-06T16:59:05.687Z,101957.36
2022-10-06T17:02:34.029Z,101965.95
2022-10-06T17:06:10.774Z,101973.17
2022-10-06T17:09:37.444Z,101976.55
2022-10-06T17:13:04.159Z,101983.13
2022-10-06T17:16:33.803Z,101979.70
2022-10-06T17:20:00.865Z,101984.00
2022-10-06T17:23:29.025Z,101981.66
2022-10-06T17:34:56.201Z,101987.88
2022-10-06T17:38:23.254Z,101988.54
2022-10-06T17:41:51.511Z,101986.64
2022-10-06T17:45:21.284Z,101983.68
2022-10-06T17:48:50.119Z,101985.55
2022-10-06T17:52:21.829Z,101989.30
2022-10-06T17:55:50.912Z,101988.17
2022-10-06T17:59:22.201Z,101994.67
2022-10-06T18:02:48.968Z,101996.20
2022-10-06T18:06:18.318Z,102002.05
2022-10-06T18:10:04.482Z,102002.85
2022-10-06T18:13:32.117Z,102002.22
2022-10-06T18:17:00.853Z,102003.16
2022-10-06T18:20:30.970Z,102006.17
2022-10-06T18:23:57.670Z,102012.84
2022-10-06T18:27:24.529Z,102014.45
2022-10-06T18:30:53.647Z,102016.75
2022-10-06T18:38:07.992Z,102023.81
2022-10-06T18:41:36.783Z,102028.66
2022-10-06T18:45:21.368Z,102026.02
2022-10-06T18:48:58.333Z,102031.33
2022-10-06T18:52:25.192Z,102031.59
2022-10-06T18:55:53.935Z,102031.84
2022-10-06T18:59:23.489Z,102035.58
2022-10-06T19:02:56.223Z,102038.78
2022-10-06T19:06:25.401Z,102043.36
2022-10-06T19:09:51.991Z,102042.36
2022-10-06T19:13:21.428Z,102041.89
2022-10-06T19:16:49.005Z,102042.16
2022-10-06T19:20:16.751Z,102041.57
2022-10-06T19:23:43.931Z,102053.38
2022-10-06T19:27:12.871Z,102055.04
2022-10-06T19:30:39.726Z,102059.09
2022-10-06T19:34:08.675Z,102056.54
2022-10-06T19:37:36.273Z,102055.42
2022-10-06T19:41:18.728Z,102055.80
2022-10-06T19:44:47.150Z,102057.29
2022-10-06T19:48:14.114Z,102059.70
2022-10-06T19:51:41.660Z,102067.51
2022-10-06T19:55:10.065Z,102070.98
2022-10-06T19:58:37.200Z,102078.95
2022-10-06T20:02:07.842Z,102074.40
2022-10-06T20:05:38.496Z,102075.55
2022-10-06T20:09:08.923Z,102079.27
2022-10-06T20:12:36.099Z,102082.10
2022-10-06T20:16:05.814Z,102090.10
2022-10-06T20:19:32.561Z,102088.70
2022-10-06T20:22:59.258Z,102090.45
2022-10-06T20:26:32.270Z,102091.19
2022-10-06T20:29:59.226Z,102090.70
2022-10-06T20:33:25.919Z,102092.47
2022-10-06T20:36:55.844Z,102091.49
2022-10-06T20:40:43.587Z,102094.57
2022-10-06T20:44:10.936Z,102098.30
2022-10-06T20:47:37.744Z,102099.23
2022-10-06T20:51:10.041Z,102103.73
2022-10-06T20:54:37.589Z,102102.94
2022-10-06T20:58:04.223Z,102105.60
2022-10-06T21:01:31.346Z,102105.44
2022-10-06T21:04:58.972Z,102109.05
2022-10-06T21:08:25.836Z,102109.08
2022-10-06T21:11:52.657Z,102109.31
2022-10-06T21:15:19.273Z,102104.63
2022-10-06T21:18:47.076Z,102105.31
2022-10-06T21:22:13.629Z,102106.15
2022-10-06T21:25:40.524Z,102107.61
2022-10-06T21:29:07.492Z,102101.65
2022-10-06T21:32:34.363Z,102101.35
2022-10-06T21:36:14.833Z,102101.86
2022-10-06T21:39:42.208Z,102101.73
2022-10-06T21:43:08.853Z,102099.20
2022-10-06T21:46:37.550Z,102102.52
2022-10-06T21:50:04.460Z,102105.84
2022-10-06T21:53:33.116Z,102105.98
2022-10-06T21:57:00.221Z,102105.27
2022-10-06T22:00:27.039Z,102108.23
2022-10-06T22:03:54.330Z,102110.84
2022-10-06T22:07:20.883Z,102113.67
2022-10-06T22:10:47.991Z,102107.34
2022-10-06T22:14:16.177Z,102103.58
2022-10-06T22:17:43.063Z,102107.70
2022-10-06T22:21:19.781Z,102108.30
2022-10-06T22:24:46.718Z,102103.36
2022-10-06T22:28:13.311Z,102096.09
2022-10-06T22:31:42.857Z,102097.53
2022-10-06T22:35:11.177Z,102095.42
2022-10-06T22:38:38.061Z,102096.02
2022-10-06T22:42:05.010Z,102097.52
2022-10-06T22:45:31.925Z,102096.92
2022-10-06T22:48:58.635Z,102098.94
